Lynchburg Regional Preston Glenn Field
KLYH : now visible

Airfield :











YOU CAN JOIN US ON...

 
LOGIN :

Register | Disclaimer

   EN    FR    IT 

 









Legend :    VFR   Marginal VFR   IFR   Intensive IFR   Very Intensive IFR
Visi :
Ceiling :
>= 8 km
>= 3000ft
5 to 8 km
1000 to 3000 ft
1500m to 5 km
500 to 1000 ft
800 to 1500m
200 to 500 ft
< 800m
< 200 ft
Symbols :   Thunderstorms  Fog  Heavy snow  Heavy precipitations  Wind > 20 kt






- Airport Elevation : 938 ft
- IATA code : LYH


KLYH - Lynchburg Regional Preston Glenn Field

CURRENT METAR :
  • 081954Z 20005KT 10SM CLR 08/M07 A3035 RMK AO2 SLP284 T00831067

EXPIRED METARs :
  • 081854Z VRB03KT 10SM CLR 09/M07 A3038 RMK AO2 SLP292 T00891072
  • 081754Z VRB03KT 10SM CLR 07/M06 A3041 RMK AO2 SLP304 T00721056 10072 21050 58025

TAF KLYH
Valid from the 08 at 18:00 until the 09 at 18:00 UTC


081720Z 0818/0918 18005KT P6SM SCT250
FM090800 VRB03KT P6SM OVC025
FM091400 VRB04KT P6SM -RA OVC025



MET'MAP, your aeronautical weather chart ! - Copyright ORBIFLY December 2007 - Disclaimer

ORBIFLY MET'MAP TEAM :

Programming & Development : Alexandra Zaïnal
Concept & original design : Baudouin d'Aumeries
Assistance for programming : Marc-Olivier Méhu
Technical & hardware support : Manuel Goepfert

Contact : metmap@orbifly.com




SOURCES & CREDITS :

   NOAA       Earth
Advisory